Time;durP1;ratioP1;P1;durP2;ratioP2;P2;SDS_P1;SDS_P2;PMS_P1;PMS_P2;Temp;Humidity;BMP_temperature;BMP_pressure;BME280_temperature;BME280_humidity;BME280_pressure;Samples;Min_cycle;Max_cycle;Signal;HPM_P1;HPM_P2
2022/06/02 00:01:09;;;;;;;5.18;2.00;;;;;;;;;;4910073;28;20460;-63
2022/06/02 00:03:41;;;;;;;4.03;1.88;;;;;;;;;;4910979;28;20377;-63
2022/06/02 00:06:46;;;;;;;3.35;1.88;;;;;;;;;;4909445;28;20482;-63
2022/06/02 00:09:20;;;;;;;3.10;2.08;;;;;;;;;;4909785;28;20505;-65
2022/06/02 00:11:55;;;;;;;3.72;2.20;;;;;;;;;;4912521;28;20412;-64
2022/06/02 00:14:20;;;;;;;3.67;1.90;;;;;;;;;;4909406;28;20346;-64
2022/06/02 00:16:54;;;;;;;5.40;2.25;;;;;;;;;;4910857;28;20405;-63
2022/06/02 00:19:43;;;;;;;3.95;2.45;;;;;;;;;;4909136;28;20523;-63
2022/06/02 00:22:50;;;;;;;6.03;2.13;;;;;;;;;;4890820;28;20454;-64
2022/06/02 00:25:26;;;;;;;5.05;2.38;;;;;;;;;;4910817;28;20039;-62
2022/06/02 00:28:18;;;;;;;4.65;2.22;;;;;;;;;;4910738;28;20454;-63
2022/06/02 00:30:52;;;;;;;3.05;1.77;;;;;;;;;;4891997;28;20466;-62
2022/06/02 00:33:24;;;;;;;3.40;1.75;;;;;;;;;;4909041;28;20355;-63
2022/06/02 00:35:51;;;;;;;5.00;2.45;;;;;;;;;;4908770;28;20581;-63
2022/06/02 00:38:34;;;;;;;3.85;2.10;;;;;;;;;;4909290;28;20430;-63
2022/06/02 00:41:27;;;;;;;3.13;2.05;;;;;;;;;;4910211;28;20035;-62
2022/06/02 00:44:04;;;;;;;4.28;2.20;;;;;;;;;;4899822;28;20433;-64
2022/06/02 00:46:48;;;;;;;5.45;2.30;;;;;;;;;;4909302;28;20345;-63
2022/06/02 00:49:19;;;;;;;5.97;2.20;;;;;;;;;;4910551;28;20429;-63
2022/06/02 00:52:41;;;;;;;4.35;2.28;;;;;;;;;;4910351;28;20430;-63
2022/06/02 00:58:22;;;;;;;4.78;2.20;;;;;;;;;;4941409;28;20454;-61
2022/06/02 01:00:54;;;;;;;3.45;2.00;;;;;;;;;;4910022;28;20353;-62
2022/06/02 01:03:22;;;;;;;3.60;1.95;;;;;;;;;;4883583;29;20320;-62
2022/06/02 01:06:26;;;;;;;3.97;2.17;;;;;;;;;;4894695;29;20390;-62
2022/06/02 01:09:09;;;;;;;4.32;2.30;;;;;;;;;;4882591;28;20517;-61
2022/06/02 01:11:54;;;;;;;5.15;2.50;;;;;;;;;;4894568;29;20442;-62
2022/06/02 01:14:44;;;;;;;3.95;2.20;;;;;;;;;;4909558;28;20422;-62
2022/06/02 01:17:31;;;;;;;4.03;1.88;;;;;;;;;;4877100;29;20470;-61
2022/06/02 01:20:06;;;;;;;5.72;2.30;;;;;;;;;;4894858;29;20339;-63
2022/06/02 01:23:00;;;;;;;5.22;2.30;;;;;;;;;;4895610;29;20517;-62
2022/06/02 01:25:46;;;;;;;2.33;1.83;;;;;;;;;;4908922;28;20465;-62
2022/06/02 01:28:45;;;;;;;5.43;2.00;;;;;;;;;;4877270;28;20415;-62
2022/06/02 01:31:24;;;;;;;3.88;2.10;;;;;;;;;;4894938;29;20435;-61
2022/06/02 01:33:58;;;;;;;3.75;2.13;;;;;;;;;;4895077;29;20461;-62
2022/06/02 01:36:29;;;;;;;5.07;2.65;;;;;;;;;;4893914;29;20342;-62
2022/06/02 01:39:08;;;;;;;2.72;2.00;;;;;;;;;;4894144;29;20451;-62
2022/06/02 01:41:58;;;;;;;3.38;2.35;;;;;;;;;;4893050;29;20624;-61
2022/06/02 01:44:42;;;;;;;4.55;2.45;;;;;;;;;;4894155;29;20328;-61
2022/06/02 01:47:21;;;;;;;4.88;2.05;;;;;;;;;;4893911;29;20027;-61
2022/06/02 01:49:49;;;;;;;6.53;2.75;;;;;;;;;;4892821;29;20349;-63
2022/06/02 01:52:41;;;;;;;3.35;2.15;;;;;;;;;;4893637;29;20332;-62
2022/06/02 01:55:34;;;;;;;4.07;2.10;;;;;;;;;;4892626;29;20043;-61
2022/06/02 01:58:08;;;;;;;3.58;2.00;;;;;;;;;;4893719;29;20363;-61
2022/06/02 02:00:34;;;;;;;3.53;1.95;;;;;;;;;;4893887;29;20441;-61
2022/06/02 02:03:15;;;;;;;3.97;1.95;;;;;;;;;;4892028;29;20486;-62
2022/06/02 02:05:58;;;;;;;2.40;1.55;;;;;;;;;;4893315;28;20074;-61
2022/06/02 02:09:02;;;;;;;4.28;2.08;;;;;;;;;;4892520;29;20391;-62
2022/06/02 02:11:43;;;;;;;3.33;1.88;;;;;;;;;;4835222;29;20490;-62
2022/06/02 02:14:18;;;;;;;3.22;1.70;;;;;;;;;;4885511;29;20119;-61
2022/06/02 02:17:02;;;;;;;3.35;1.70;;;;;;;;;;4893936;29;20457;-61
2022/06/02 02:19:56;;;;;;;3.67;2.13;;;;;;;;;;4893623;29;20394;-61
2022/06/02 02:22:41;;;;;;;3.35;2.15;;;;;;;;;;4893366;29;20434;-61
2022/06/02 02:25:15;;;;;;;3.58;2.10;;;;;;;;;;4891619;29;20355;-61
2022/06/02 02:28:02;;;;;;;3.22;2.17;;;;;;;;;;4891426;29;20035;-61
2022/06/02 02:30:43;;;;;;;3.67;1.88;;;;;;;;;;4893135;28;20149;-61
2022/06/02 02:33:14;;;;;;;4.43;2.60;;;;;;;;;;4892892;29;20394;-62
2022/06/02 02:36:03;;;;;;;3.03;2.00;;;;;;;;;;4891588;29;20352;-62
2022/06/02 02:39:00;;;;;;;3.75;1.85;;;;;;;;;;4893095;29;20410;-61
2022/06/02 02:42:09;;;;;;;3.30;1.88;;;;;;;;;;4876207;29;20525;-62
2022/06/02 02:44:47;;;;;;;3.08;2.30;;;;;;;;;;4892056;28;20062;-62
2022/06/02 02:47:34;;;;;;;3.50;2.20;;;;;;;;;;4891790;29;20446;-62
2022/06/02 02:50:05;;;;;;;3.78;2.33;;;;;;;;;;4892918;29;20371;-61
2022/06/02 02:52:51;;;;;;;4.20;2.00;;;;;;;;;;4891922;29;20468;-63
2022/06/02 02:55:24;;;;;;;2.88;2.22;;;;;;;;;;4907173;28;20089;-61
2022/06/02 02:58:20;;;;;;;2.75;1.98;;;;;;;;;;4891385;29;20350;-62
2022/06/02 03:01:01;;;;;;;5.93;2.30;;;;;;;;;;4892778;29;20340;-61
2022/06/02 03:03:33;;;;;;;5.85;2.00;;;;;;;;;;4891070;29;20114;-62
2022/06/02 03:06:20;;;;;;;6.43;2.70;;;;;;;;;;4907086;28;20327;-61
2022/06/02 03:09:09;;;;;;;3.80;2.20;;;;;;;;;;4892762;29;20054;-61
2022/06/02 03:11:34;;;;;;;5.35;2.25;;;;;;;;;;4890798;28;20534;-62
2022/06/02 03:14:23;;;;;;;3.63;1.75;;;;;;;;;;4892662;29;20422;-61
2022/06/02 03:17:13;;;;;;;3.50;2.35;;;;;;;;;;4890733;28;20039;-62
2022/06/02 03:19:57;;;;;;;2.50;1.67;;;;;;;;;;4892448;29;20312;-61
2022/06/02 03:22:37;;;;;;;3.30;1.85;;;;;;;;;;4893619;29;20387;-62
2022/06/02 03:25:13;;;;;;;3.47;2.00;;;;;;;;;;4892651;29;20436;-61
2022/06/02 03:27:58;;;;;;;4.50;2.05;;;;;;;;;;4890550;29;20529;-63
2022/06/02 03:30:25;;;;;;;3.22;2.40;;;;;;;;;;4892118;28;20353;-61
2022/06/02 03:33:02;;;;;;;6.10;2.20;;;;;;;;;;4892308;29;20058;-61
2022/06/02 03:35:43;;;;;;;2.30;1.77;;;;;;;;;;4890909;29;20299;-61
2022/06/02 03:38:11;;;;;;;2.83;2.15;;;;;;;;;;4890859;29;20308;-61
2022/06/02 03:41:04;;;;;;;4.07;2.30;;;;;;;;;;4892069;29;20418;-61
2022/06/02 03:44:05;;;;;;;3.03;2.05;;;;;;;;;;4892610;29;20350;-61
2022/06/02 03:46:53;;;;;;;3.08;2.17;;;;;;;;;;4887819;29;20128;-61
2022/06/02 03:49:45;;;;;;;3.42;2.03;;;;;;;;;;4892078;29;20047;-61
2022/06/02 03:52:26;;;;;;;2.92;2.20;;;;;;;;;;4890151;29;20418;-62
2022/06/02 03:55:03;;;;;;;3.63;2.00;;;;;;;;;;4892003;29;20426;-61
2022/06/02 03:57:32;;;;;;;2.83;2.00;;;;;;;;;;4907335;28;20574;-61
2022/06/02 04:00:07;;;;;;;3.92;2.30;;;;;;;;;;4892654;29;20403;-62
2022/06/02 04:02:38;;;;;;;4.68;2.13;;;;;;;;;;4906125;28;20468;-61
2022/06/02 04:05:19;;;;;;;2.70;1.88;;;;;;;;;;4892745;29;20315;-62
2022/06/02 04:08:23;;;;;;;4.50;1.83;;;;;;;;;;4892735;29;20498;-61
2022/06/02 04:11:14;;;;;;;2.50;1.95;;;;;;;;;;4892296;29;20411;-62
2022/06/02 04:14:14;;;;;;;3.00;2.38;;;;;;;;;;4883994;29;20471;-61
2022/06/02 04:16:39;;;;;;;2.20;1.80;;;;;;;;;;4891913;29;20382;-62
2022/06/02 04:22:26;;;;;;;2.85;1.67;;;;;;;;;;4892251;28;20484;-61
2022/06/02 04:25:29;;;;;;;2.50;1.83;;;;;;;;;;4893459;29;20090;-62
2022/06/02 04:28:00;;;;;;;5.00;2.28;;;;;;;;;;4891494;29;20401;-61
2022/06/02 04:30:53;;;;;;;2.92;2.15;;;;;;;;;;4893780;28;20460;-62
2022/06/02 04:33:33;;;;;;;3.08;2.13;;;;;;;;;;4895367;29;20446;-62
2022/06/02 04:36:29;;;;;;;3.08;1.70;;;;;;;;;;4895402;29;20430;-61
2022/06/02 04:39:20;;;;;;;3.42;2.15;;;;;;;;;;4895090;29;20062;-61
2022/06/02 04:42:16;;;;;;;3.03;2.00;;;;;;;;;;4893594;29;20440;-61
2022/06/02 04:45:03;;;;;;;7.10;2.00;;;;;;;;;;4909643;28;20450;-61
2022/06/02 04:47:48;;;;;;;4.15;2.00;;;;;;;;;;4894998;29;20035;-62
2022/06/02 04:50:23;;;;;;;2.95;1.95;;;;;;;;;;4896476;29;20363;-62
2022/06/02 04:52:48;;;;;;;3.15;2.20;;;;;;;;;;4894812;29;20498;-62
2022/06/02 04:55:20;;;;;;;2.57;1.90;;;;;;;;;;4895009;29;20514;-63
2022/06/02 04:58:29;;;;;;;4.25;2.10;;;;;;;;;;4894651;29;20597;-63
2022/06/02 05:01:04;;;;;;;2.38;1.73;;;;;;;;;;4852067;29;20414;-61
2022/06/02 05:03:44;;;;;;;4.75;1.92;;;;;;;;;;4909295;28;20461;-61
2022/06/02 05:06:30;;;;;;;3.33;1.65;;;;;;;;;;4893284;29;20461;-63
2022/06/02 05:08:59;;;;;;;2.90;2.03;;;;;;;;;;4893628;29;20465;-61
2022/06/02 05:11:29;;;;;;;3.38;2.20;;;;;;;;;;4895017;29;20390;-61
2022/06/02 05:14:26;;;;;;;3.90;2.25;;;;;;;;;;4893078;29;20462;-61
2022/06/02 05:17:00;;;;;;;2.65;1.80;;;;;;;;;;4894671;29;20445;-62
2022/06/02 05:19:50;;;;;;;2.65;2.00;;;;;;;;;;4894875;29;20504;-61
2022/06/02 05:22:51;;;;;;;2.90;1.80;;;;;;;;;;4895244;29;20546;-62
2022/06/02 05:25:37;;;;;;;2.63;1.70;;;;;;;;;;4894381;29;20323;-62
2022/06/02 05:28:03;;;;;;;3.20;2.10;;;;;;;;;;4894271;29;20350;-61
2022/06/02 05:30:37;;;;;;;1.67;1.50;;;;;;;;;;4894364;28;20335;-61
2022/06/02 05:33:06;;;;;;;2.42;1.80;;;;;;;;;;4892981;29;20798;-61
2022/06/02 05:36:02;;;;;;;3.60;2.15;;;;;;;;;;4894617;29;20490;-61
2022/06/02 05:38:50;;;;;;;2.83;1.70;;;;;;;;;;4895167;29;20464;-62
2022/06/02 05:41:24;;;;;;;3.50;2.20;;;;;;;;;;4894220;28;20378;-61
2022/06/02 05:43:55;;;;;;;2.60;1.70;;;;;;;;;;4894049;29;20039;-62
2022/06/02 05:46:58;;;;;;;3.58;2.00;;;;;;;;;;4894330;29;20382;-61
2022/06/02 05:49:34;;;;;;;3.67;2.20;;;;;;;;;;4894103;29;20093;-62
2022/06/02 05:52:27;;;;;;;2.42;1.83;;;;;;;;;;4909125;28;20397;-62
2022/06/02 05:55:05;;;;;;;3.35;1.90;;;;;;;;;;4895438;29;20330;-61
2022/06/02 05:57:52;;;;;;;2.25;1.92;;;;;;;;;;4893644;29;20442;-61
2022/06/02 06:01:07;;;;;;;3.25;2.13;;;;;;;;;;4894040;29;20395;-62
2022/06/02 06:04:09;;;;;;;2.67;1.70;;;;;;;;;;4841417;29;20393;-62
2022/06/02 06:07:01;;;;;;;3.63;1.88;;;;;;;;;;4893914;29;20110;-62
2022/06/02 06:09:29;;;;;;;2.75;1.85;;;;;;;;;;4907720;28;20494;-62
2022/06/02 06:12:14;;;;;;;2.70;1.83;;;;;;;;;;4893879;29;20031;-62
2022/06/02 06:15:03;;;;;;;3.25;1.88;;;;;;;;;;4893810;29;20423;-62
2022/06/02 06:17:37;;;;;;;3.08;1.60;;;;;;;;;;4894421;29;20477;-62
2022/06/02 06:20:35;;;;;;;4.22;2.05;;;;;;;;;;4893497;29;20435;-63
2022/06/02 06:23:40;;;;;;;2.43;1.50;;;;;;;;;;4893340;29;20350;-63
2022/06/02 06:26:43;;;;;;;2.42;1.77;;;;;;;;;;4893561;29;20454;-62
2022/06/02 06:29:32;;;;;;;2.90;1.98;;;;;;;;;;4907888;28;20416;-62
2022/06/02 06:32:13;;;;;;;5.40;2.03;;;;;;;;;;4930435;28;20101;-62
2022/06/02 06:34:50;;;;;;;2.53;1.88;;;;;;;;;;4914376;28;20052;-62
2022/06/02 06:37:21;;;;;;;2.17;1.55;;;;;;;;;;4931413;28;20394;-62
2022/06/02 06:40:16;;;;;;;2.47;1.80;;;;;;;;;;4931485;28;20353;-62
2022/06/02 06:42:54;;;;;;;3.63;2.17;;;;;;;;;;4929540;28;20449;-63
2022/06/02 06:45:22;;;;;;;3.92;1.80;;;;;;;;;;4931445;28;20346;-62
2022/06/02 06:47:59;;;;;;;2.78;1.60;;;;;;;;;;4929801;28;20349;-62
2022/06/02 06:51:19;;;;;;;3.13;2.03;;;;;;;;;;4932443;28;20303;-62
2022/06/02 06:53:54;;;;;;;1.92;1.42;;;;;;;;;;4851951;29;20430;-62
2022/06/02 06:56:42;;;;;;;4.72;2.00;;;;;;;;;;4928565;28;20492;-62
2022/06/02 06:59:17;;;;;;;2.38;1.65;;;;;;;;;;4930567;28;20345;-62
2022/06/02 07:02:01;;;;;;;2.17;1.63;;;;;;;;;;4929656;28;20318;-66
2022/06/02 07:04:45;;;;;;;2.22;1.63;;;;;;;;;;4931260;28;20345;-62
2022/06/02 07:07:26;;;;;;;3.08;1.70;;;;;;;;;;4930840;28;20350;-62
2022/06/02 07:09:55;;;;;;;2.47;1.60;;;;;;;;;;4933003;28;20464;-63
2022/06/02 07:15:26;;;;;;;2.55;1.67;;;;;;;;;;4930888;28;20468;-62
2022/06/02 07:18:04;;;;;;;2.00;1.80;;;;;;;;;;4930974;28;20026;-62
2022/06/02 07:20:46;;;;;;;3.03;2.10;;;;;;;;;;4932317;28;20341;-62
2022/06/02 07:23:33;;;;;;;2.90;1.75;;;;;;;;;;4930637;28;20524;-63
2022/06/02 07:26:24;;;;;;;1.73;1.50;;;;;;;;;;4930020;28;20402;-62
2022/06/02 07:29:12;;;;;;;1.98;1.60;;;;;;;;;;4909261;28;20066;-62
2022/06/02 07:32:08;;;;;;;2.45;1.50;;;;;;;;;;4911917;28;20385;-61
2022/06/02 07:34:55;;;;;;;2.80;1.73;;;;;;;;;;4911319;28;20378;-62
2022/06/02 07:37:39;;;;;;;2.53;1.50;;;;;;;;;;4912898;28;20120;-62
2022/06/02 07:40:07;;;;;;;2.00;1.55;;;;;;;;;;4910932;28;20378;-62
2022/06/02 07:43:16;;;;;;;1.85;1.50;;;;;;;;;;4911333;28;20491;-62
2022/06/02 07:45:51;;;;;;;3.45;1.52;;;;;;;;;;4911432;28;20353;-61
2022/06/02 07:48:22;;;;;;;2.78;1.48;;;;;;;;;;4911600;28;20410;-63
2022/06/02 07:51:09;;;;;;;1.65;1.33;;;;;;;;;;4925484;28;20346;-62
2022/06/02 07:53:55;;;;;;;1.90;1.70;;;;;;;;;;4909854;28;20053;-62
2022/06/02 07:56:28;;;;;;;2.35;1.35;;;;;;;;;;4911071;28;20350;-64
2022/06/02 07:59:11;;;;;;;2.35;1.50;;;;;;;;;;4909481;28;20389;-63
2022/06/02 08:02:24;;;;;;;2.58;1.50;;;;;;;;;;4925634;28;20472;-62
2022/06/02 08:04:58;;;;;;;2.65;1.70;;;;;;;;;;4853184;29;20440;-62
2022/06/02 08:07:36;;;;;;;4.40;1.58;;;;;;;;;;4911076;28;20406;-64
2022/06/02 08:10:12;;;;;;;3.28;1.65;;;;;;;;;;4914837;28;20409;-62
2022/06/02 08:12:57;;;;;;;2.63;1.50;;;;;;;;;;4915075;28;20436;-62
2022/06/02 08:15:46;;;;;;;1.92;1.48;;;;;;;;;;4929461;28;20031;-62
2022/06/02 08:18:26;;;;;;;2.08;1.45;;;;;;;;;;4914562;28;20504;-62
2022/06/02 08:21:15;;;;;;;2.00;1.20;;;;;;;;;;4929086;28;20393;-63
2022/06/02 08:23:56;;;;;;;1.40;1.30;;;;;;;;;;4914517;28;20030;-62
2022/06/02 08:26:49;;;;;;;1.83;1.42;;;;;;;;;;4915184;28;20039;-64
2022/06/02 08:29:24;;;;;;;2.38;1.60;;;;;;;;;;4907064;28;20393;-62
2022/06/02 08:31:57;;;;;;;1.77;1.45;;;;;;;;;;4914426;28;20486;-62
2022/06/02 08:34:29;;;;;;;1.83;1.50;;;;;;;;;;4929458;28;20454;-62
2022/06/02 08:36:57;;;;;;;2.08;1.60;;;;;;;;;;4929023;28;20039;-62
2022/06/02 08:39:46;;;;;;;2.78;1.73;;;;;;;;;;4929144;28;20423;-63
2022/06/02 08:42:33;;;;;;;2.45;1.80;;;;;;;;;;4929057;28;20484;-62
2022/06/02 08:45:18;;;;;;;3.10;1.48;;;;;;;;;;4928636;28;20423;-64
2022/06/02 08:48:19;;;;;;;2.67;1.50;;;;;;;;;;4928928;28;20626;-63
2022/06/02 08:50:51;;;;;;;2.88;1.38;;;;;;;;;;4929053;28;20053;-62
2022/06/02 08:53:49;;;;;;;4.78;1.88;;;;;;;;;;4928403;28;20373;-63
2022/06/02 08:56:43;;;;;;;1.98;1.38;;;;;;;;;;4928526;28;20034;-63
2022/06/02 08:59:24;;;;;;;2.75;1.60;;;;;;;;;;4913971;28;20358;-62
2022/06/02 09:02:28;;;;;;;2.80;1.40;;;;;;;;;;4929163;28;20533;-63
2022/06/02 09:05:13;;;;;;;2.75;1.77;;;;;;;;;;4861217;28;20431;-63
2022/06/02 09:08:06;;;;;;;1.65;1.38;;;;;;;;;;4915237;28;20335;-63
2022/06/02 09:10:37;;;;;;;3.15;1.58;;;;;;;;;;4929166;28;20433;-62
2022/06/02 09:13:39;;;;;;;3.10;1.67;;;;;;;;;;4913639;28;20338;-63
2022/06/02 09:16:29;;;;;;;3.03;1.30;;;;;;;;;;4913690;28;20348;-63
2022/06/02 09:19:01;;;;;;;2.10;1.50;;;;;;;;;;4913676;28;20112;-62
2022/06/02 09:21:29;;;;;;;1.83;1.33;;;;;;;;;;4913554;28;20434;-62
2022/06/02 09:24:21;;;;;;;2.30;1.40;;;;;;;;;;4927978;28;20034;-63
2022/06/02 09:27:00;;;;;;;2.40;1.48;;;;;;;;;;4928060;28;20421;-62
2022/06/02 09:29:33;;;;;;;1.50;1.20;;;;;;;;;;4927509;28;20377;-62
2022/06/02 09:31:58;;;;;;;1.70;1.42;;;;;;;;;;4913451;28;20444;-62
2022/06/02 09:34:47;;;;;;;2.17;1.38;;;;;;;;;;4913404;28;20351;-63
2022/06/02 09:37:31;;;;;;;2.22;1.30;;;;;;;;;;4912226;28;20445;-63
2022/06/02 09:40:13;;;;;;;0.93;0.88;;;;;;;;;;4914661;28;20492;-62
2022/06/02 09:42:47;;;;;;;2.00;1.20;;;;;;;;;;4912178;28;20537;-63
2022/06/02 09:45:52;;;;;;;2.08;1.38;;;;;;;;;;4914210;28;20359;-63
2022/06/02 09:48:27;;;;;;;1.58;1.10;;;;;;;;;;4913071;28;20061;-63
2022/06/02 09:51:34;;;;;;;1.23;1.13;;;;;;;;;;4913176;28;20034;-62
2022/06/02 09:54:10;;;;;;;1.75;1.10;;;;;;;;;;4913008;28;20030;-63
2022/06/02 09:56:50;;;;;;;1.42;1.10;;;;;;;;;;4913192;28;20434;-63
2022/06/02 09:59:38;;;;;;;1.60;1.23;;;;;;;;;;4914171;28;20358;-62
2022/06/02 10:02:19;;;;;;;1.87;1.40;;;;;;;;;;4912816;28;20453;-62
2022/06/02 10:05:03;;;;;;;2.35;1.30;;;;;;;;;;4912771;28;20601;-63
2022/06/02 10:07:43;;;;;;;3.58;1.45;;;;;;;;;;4913062;28;20422;-63
2022/06/02 10:10:15;;;;;;;1.60;1.05;;;;;;;;;;4927294;28;20486;-62
2022/06/02 10:13:11;;;;;;;2.05;1.38;;;;;;;;;;4913067;28;20481;-63
2022/06/02 10:15:41;;;;;;;1.00;0.88;;;;;;;;;;4911494;28;20145;-62
2022/06/02 10:18:25;;;;;;;2.05;1.25;;;;;;;;;;4912916;28;20446;-62
2022/06/02 10:21:00;;;;;;;1.92;1.13;;;;;;;;;;4913241;28;20366;-62
2022/06/02 10:23:56;;;;;;;2.05;1.20;;;;;;;;;;4912975;28;20097;-62
2022/06/02 10:26:47;;;;;;;2.03;1.13;;;;;;;;;;4912362;28;20534;-63
2022/06/02 10:29:34;;;;;;;3.47;1.10;;;;;;;;;;4904523;28;20529;-63
2022/06/02 10:32:15;;;;;;;1.52;1.10;;;;;;;;;;4893328;29;20374;-62
2022/06/02 10:34:51;;;;;;;1.33;1.20;;;;;;;;;;4893075;29;20439;-62
2022/06/02 10:37:35;;;;;;;1.65;1.20;;;;;;;;;;4892109;29;20046;-63
2022/06/02 10:40:36;;;;;;;3.17;1.50;;;;;;;;;;4891465;29;20355;-64
2022/06/02 10:43:28;;;;;;;1.42;1.02;;;;;;;;;;4891767;29;20098;-62
2022/06/02 10:46:02;;;;;;;1.20;1.08;;;;;;;;;;4893552;29;20462;-63
2022/06/02 10:48:40;;;;;;;2.10;1.50;;;;;;;;;;4893111;29;20027;-65
2022/06/02 10:51:17;;;;;;;1.73;1.48;;;;;;;;;;4892825;29;20509;-62
2022/06/02 10:54:08;;;;;;;1.85;1.10;;;;;;;;;;4891266;29;20402;-63
2022/06/02 10:56:47;;;;;;;2.35;1.20;;;;;;;;;;4891451;29;20419;-64
2022/06/02 10:59:47;;;;;;;1.15;1.05;;;;;;;;;;4891559;29;20445;-62
2022/06/02 11:02:41;;;;;;;2.20;1.45;;;;;;;;;;4891160;29;20335;-63
2022/06/02 11:05:28;;;;;;;2.00;1.23;;;;;;;;;;4892750;29;20454;-63
2022/06/02 11:08:24;;;;;;;2.15;1.10;;;;;;;;;;4892587;29;20454;-63
2022/06/02 11:11:14;;;;;;;1.77;1.00;;;;;;;;;;4907438;28;20159;-63
2022/06/02 11:14:01;;;;;;;1.02;0.95;;;;;;;;;;4892402;29;20444;-62
2022/06/02 11:16:32;;;;;;;4.95;1.10;;;;;;;;;;4892857;29;20337;-63
2022/06/02 11:19:10;;;;;;;1.20;1.10;;;;;;;;;;4892480;29;20114;-63
2022/06/02 11:21:54;;;;;;;1.48;1.00;;;;;;;;;;4890993;29;20035;-63
2022/06/02 11:25:02;;;;;;;1.67;1.15;;;;;;;;;;4892313;29;20454;-63
2022/06/02 11:28:00;;;;;;;1.15;1.00;;;;;;;;;;4871229;29;20446;-63
2022/06/02 11:30:47;;;;;;;1.40;0.98;;;;;;;;;;4892829;28;20468;-63
2022/06/02 11:33:27;;;;;;;1.27;0.90;;;;;;;;;;4892577;29;20342;-63
2022/06/02 11:36:15;;;;;;;1.88;0.90;;;;;;;;;;4892794;29;20462;-63
2022/06/02 11:39:15;;;;;;;1.30;1.10;;;;;;;;;;4891127;28;20327;-64
2022/06/02 11:42:14;;;;;;;2.40;0.90;;;;;;;;;;4892201;29;20347;-62
2022/06/02 11:45:30;;;;;;;0.75;0.70;;;;;;;;;;4892061;29;20331;-64
2022/06/02 11:47:55;;;;;;;1.33;0.95;;;;;;;;;;4849592;29;20406;-62
2022/06/02 11:50:42;;;;;;;0.70;0.70;;;;;;;;;;4892599;29;20355;-63
2022/06/02 11:53:32;;;;;;;1.73;0.95;;;;;;;;;;4892093;29;20579;-63
2022/06/02 11:56:07;;;;;;;0.90;0.80;;;;;;;;;;4891845;29;20366;-63
2022/06/02 11:58:54;;;;;;;0.70;0.70;;;;;;;;;;4890102;29;20367;-63
2022/06/02 12:01:21;;;;;;;1.10;0.85;;;;;;;;;;4891442;29;20133;-64
2022/06/02 12:04:11;;;;;;;1.95;0.80;;;;;;;;;;4906615;28;20447;-62
2022/06/02 12:07:14;;;;;;;0.70;0.70;;;;;;;;;;4892054;29;20510;-63
2022/06/02 12:10:03;;;;;;;1.42;1.00;;;;;;;;;;4893685;29;20175;-63
2022/06/02 12:12:54;;;;;;;0.70;0.70;;;;;;;;;;4892078;29;20446;-63
2022/06/02 12:15:48;;;;;;;0.90;0.80;;;;;;;;;;4890674;29;20407;-63
2022/06/02 12:18:19;;;;;;;1.10;0.90;;;;;;;;;;4892272;29;20435;-62
2022/06/02 12:20:54;;;;;;;1.33;0.90;;;;;;;;;;4891760;29;20351;-63
2022/06/02 12:23:56;;;;;;;0.75;0.75;;;;;;;;;;4890056;29;20427;-62
2022/06/02 12:26:46;;;;;;;1.65;1.00;;;;;;;;;;4891886;29;20366;-63
2022/06/02 12:29:23;;;;;;;1.85;1.00;;;;;;;;;;4892267;28;20346;-64
2022/06/02 12:31:52;;;;;;;1.88;0.95;;;;;;;;;;4891602;29;20339;-63
2022/06/02 12:34:47;;;;;;;1.58;0.90;;;;;;;;;;4893188;29;20555;-63
2022/06/02 12:37:26;;;;;;;1.95;0.90;;;;;;;;;;4891339;29;20462;-63
2022/06/02 12:40:11;;;;;;;1.85;0.90;;;;;;;;;;4890374;29;20094;-62
2022/06/02 12:43:02;;;;;;;1.85;0.82;;;;;;;;;;4890338;29;20023;-63
2022/06/02 12:45:30;;;;;;;1.00;0.80;;;;;;;;;;4891393;29;20402;-66
2022/06/02 12:48:18;;;;;;;0.80;0.80;;;;;;;;;;4891633;29;20304;-64
2022/06/02 12:50:56;;;;;;;1.63;0.95;;;;;;;;;;4893300;28;20346;-63
2022/06/02 12:53:42;;;;;;;5.05;1.00;;;;;;;;;;4895146;29;20454;-64
2022/06/02 12:56:46;;;;;;;1.38;0.80;;;;;;;;;;4895085;29;20455;-63
2022/06/02 12:59:17;;;;;;;0.65;0.65;;;;;;;;;;4864989;29;20081;-63
2022/06/02 13:02:05;;;;;;;0.88;0.80;;;;;;;;;;4893681;29;20375;-63
2022/06/02 13:04:53;;;;;;;1.23;0.80;;;;;;;;;;4894479;29;20093;-63
2022/06/02 13:07:49;;;;;;;2.13;1.08;;;;;;;;;;4893585;29;20046;-63
2022/06/02 13:10:20;;;;;;;1.05;0.82;;;;;;;;;;4894801;29;20513;-63
2022/06/02 13:13:27;;;;;;;1.00;0.70;;;;;;;;;;4895044;29;20352;-63
2022/06/02 13:16:13;;;;;;;1.30;1.00;;;;;;;;;;4874778;29;20410;-62
2022/06/02 13:18:51;;;;;;;1.33;1.20;;;;;;;;;;4893562;29;20359;-63
2022/06/02 13:21:35;;;;;;;1.33;1.10;;;;;;;;;;4894351;29;20390;-63
2022/06/02 13:24:10;;;;;;;1.15;1.00;;;;;;;;;;4894556;29;20381;-63
2022/06/02 13:26:44;;;;;;;0.77;0.77;;;;;;;;;;4894768;29;20383;-63
2022/06/02 13:29:09;;;;;;;2.15;1.02;;;;;;;;;;4894469;28;20414;-64
2022/06/02 13:31:53;;;;;;;1.10;0.82;;;;;;;;;;4894540;29;20355;-63
2022/06/02 13:34:40;;;;;;;1.00;0.90;;;;;;;;;;4894489;29;20109;-63
2022/06/02 13:37:26;;;;;;;2.58;1.05;;;;;;;;;;4893778;29;20465;-63
2022/06/02 13:40:25;;;;;;;1.08;0.90;;;;;;;;;;4892888;29;20343;-63
2022/06/02 13:43:09;;;;;;;1.80;1.02;;;;;;;;;;4859248;29;20443;-64
2022/06/02 13:46:05;;;;;;;1.35;0.93;;;;;;;;;;4895010;29;20389;-63
2022/06/02 13:49:08;;;;;;;1.23;1.10;;;;;;;;;;4908637;28;20039;-63
2022/06/02 13:51:55;;;;;;;0.93;0.80;;;;;;;;;;4894270;29;20324;-63
2022/06/02 13:57:54;;;;;;;0.90;0.70;;;;;;;;;;4894924;29;20342;-63
2022/06/02 14:00:45;;;;;;;1.55;1.10;;;;;;;;;;4895942;28;20318;-62
2022/06/02 14:03:35;;;;;;;1.20;0.80;;;;;;;;;;4884584;29;20343;-63
2022/06/02 14:06:08;;;;;;;0.95;0.85;;;;;;;;;;4892364;29;20443;-63
2022/06/02 14:09:12;;;;;;;1.75;0.90;;;;;;;;;;4892669;29;20562;-62
2022/06/02 14:11:48;;;;;;;1.00;0.90;;;;;;;;;;4893471;29;20035;-63
2022/06/02 14:14:38;;;;;;;1.10;0.75;;;;;;;;;;4892753;29;20423;-63
2022/06/02 14:17:41;;;;;;;1.23;0.50;;;;;;;;;;4892608;29;20054;-63
2022/06/02 14:20:32;;;;;;;1.10;1.00;;;;;;;;;;4894474;29;20106;-63
2022/06/02 14:23:12;;;;;;;1.50;1.15;;;;;;;;;;4893317;29;20462;-64
2022/06/02 14:25:59;;;;;;;0.80;0.80;;;;;;;;;;4894669;29;20407;-63
2022/06/02 14:29:01;;;;;;;3.47;1.00;;;;;;;;;;4893574;28;20062;-62
2022/06/02 14:31:47;;;;;;;4.40;0.80;;;;;;;;;;4893407;29;20477;-62
2022/06/02 14:34:47;;;;;;;0.77;0.70;;;;;;;;;;4894360;29;20481;-62
2022/06/02 14:37:20;;;;;;;0.95;0.85;;;;;;;;;;4893772;29;20343;-64
2022/06/02 14:39:49;;;;;;;1.25;0.77;;;;;;;;;;4891951;29;20351;-62
2022/06/02 14:43:03;;;;;;;1.48;0.80;;;;;;;;;;4894697;29;20343;-63
2022/06/02 14:45:25;;;;;;;1.23;0.90;;;;;;;;;;4893157;29;20043;-62
2022/06/02 14:47:56;;;;;;;1.58;0.80;;;;;;;;;;4893500;29;20028;-62
2022/06/02 14:50:28;;;;;;;0.63;0.63;;;;;;;;;;4893135;29;20067;-64
2022/06/02 14:53:05;;;;;;;1.15;0.80;;;;;;;;;;4892931;29;20505;-63
2022/06/02 14:55:36;;;;;;;0.80;0.80;;;;;;;;;;4893337;29;20541;-62
2022/06/02 14:58:29;;;;;;;1.25;0.90;;;;;;;;;;4892896;29;20351;-62
2022/06/02 15:01:24;;;;;;;1.40;0.63;;;;;;;;;;4907169;28;20350;-62
2022/06/02 15:04:25;;;;;;;1.02;0.80;;;;;;;;;;4894720;29;20053;-64
2022/06/02 15:07:17;;;;;;;1.25;0.80;;;;;;;;;;4891251;29;20474;-63
2022/06/02 15:10:06;;;;;;;1.40;1.00;;;;;;;;;;4891462;29;20082;-63
2022/06/02 15:12:52;;;;;;;1.10;0.95;;;;;;;;;;4891662;28;20351;-63
2022/06/02 15:15:45;;;;;;;1.13;0.80;;;;;;;;;;4892725;29;20442;-63
2022/06/02 15:18:32;;;;;;;0.70;0.70;;;;;;;;;;4892867;29;20482;-62
2022/06/02 15:21:37;;;;;;;1.52;0.98;;;;;;;;;;4876094;28;20426;-64
2022/06/02 15:24:17;;;;;;;0.80;0.70;;;;;;;;;;4890501;29;20465;-63
2022/06/02 15:27:20;;;;;;;0.88;0.77;;;;;;;;;;4891103;29;20346;-63
2022/06/02 15:30:08;;;;;;;1.83;0.93;;;;;;;;;;4892015;28;20477;-64
2022/06/02 15:32:59;;;;;;;1.30;1.02;;;;;;;;;;4890825;29;20402;-62
2022/06/02 15:35:27;;;;;;;2.60;1.05;;;;;;;;;;4862742;29;20435;-63
2022/06/02 15:37:59;;;;;;;1.55;0.88;;;;;;;;;;4892255;29;20442;-63
2022/06/02 15:40:39;;;;;;;2.03;1.20;;;;;;;;;;4892528;29;20478;-63
2022/06/02 15:43:51;;;;;;;3.38;1.75;;;;;;;;;;4892057;29;20418;-64
2022/06/02 15:46:55;;;;;;;5.50;2.67;;;;;;;;;;4891910;29;20461;-63
2022/06/02 15:49:42;;;;;;;5.72;3.10;;;;;;;;;;4814708;29;20447;-62
2022/06/02 15:52:41;;;;;;;5.95;3.10;;;;;;;;;;4814832;29;20409;-63
2022/06/02 15:55:15;;;;;;;2.85;1.33;;;;;;;;;;4880264;29;20324;-63
2022/06/02 15:58:12;;;;;;;3.80;1.65;;;;;;;;;;4891980;29;20039;-62
2022/06/02 16:01:14;;;;;;;1.65;1.08;;;;;;;;;;4891991;29;20398;-63
2022/06/02 16:04:10;;;;;;;1.50;0.90;;;;;;;;;;4891753;29;20438;-63
2022/06/02 16:06:41;;;;;;;2.50;1.35;;;;;;;;;;4891631;29;20597;-63
2022/06/02 16:13:06;;;;;;;1.85;1.00;;;;;;;;;;4892821;29;20534;-63
2022/06/02 16:16:22;;;;;;;1.40;1.10;;;;;;;;;;4891717;29;20442;-63
2022/06/02 16:19:22;;;;;;;1.50;1.13;;;;;;;;;;4832810;29;20341;-63
2022/06/02 16:22:06;;;;;;;2.88;1.27;;;;;;;;;;4832500;29;20413;-62
2022/06/02 16:24:46;;;;;;;2.63;1.35;;;;;;;;;;4885772;28;20481;-62
2022/06/02 16:27:49;;;;;;;3.28;1.15;;;;;;;;;;4894130;29;20344;-63
2022/06/02 16:30:20;;;;;;;4.90;1.58;;;;;;;;;;4924744;28;20443;-63
2022/06/02 16:33:06;;;;;;;2.22;1.20;;;;;;;;;;4915332;28;20354;-64
2022/06/02 16:35:40;;;;;;;4.25;1.35;;;;;;;;;;4914323;28;20412;-63
2022/06/02 16:38:09;;;;;;;2.83;1.15;;;;;;;;;;4916246;28;20321;-63
2022/06/02 16:40:39;;;;;;;2.45;1.10;;;;;;;;;;4914533;28;20362;-63
2022/06/02 16:43:29;;;;;;;2.78;1.58;;;;;;;;;;4928982;28;20475;-64